Montrose, AR (71658)

10:09 AM CDT on July 23, 2014 (GMT -0500)
Hwy 172 (KARMONTI2) Elev 246 ft | 33.55 °N, 91.82 °W | Change Station

Current weather conditions updated 9 minutes ago

Overcast
Overcast
85.0 °F
Feels Like 86 °F
N
0.0
Wind Variable Wind from South
Gusts 0.0 mph

Today is forecast to be Warmer than yesterday.

Today
High -- | Low -- °F
--% Chance of Precip.
Yesterday
High -- | Low -- °F
Precip. -- in
6:12 AM 8:12 PM
Waning Crescent, 10% visible
Pressure 30.08 in
Visibility 10.0 miles
Clouds Clear
Heat Index 86 °F
Dew Point 64 °F
Humidity 50%
Rainfall 0.00 in
Snow Depth Not available.
UV 6 out of 12
Pollen 3.60 out of 12
Air Quality Not available.
Flu Activity Not available.
METAR KLLQ 231453Z AUTO 00000KT 10SM CLR 28/21 A3009 RMK AO2 SLP185 T02830211 50006

More Conditions Fewer Conditions

Pressure 30.08 in
Visibility 10.0 miles
Clouds Clear
Heat Index 86 °F
Dew Point 64 °F
Humidity 50%
Rainfall 0.00 in
Snow Depth Not available.
UV 6 out of 12
Pollen 3.60 out of 12
Air Quality Not available.
Flu Activity Not available.
METAR KLLQ 231453Z AUTO 00000KT 10SM CLR 28/21 A3009 RMK AO2 SLP185 T02830211 50006

More Conditions Fewer Conditions

10-Day Weather Forecast

Almanac

Astronomy

Jul. 23, 2014 Rise Set
Actual Time 6:12 AM CDT 8:12 PM CDT
Civil Twilight 5:45 AM CDT 8:39 PM CDT
Nautical Twilight 5:11 AM CDT 9:13 PM CDT
Astronomical Twilight 4:35 AM CDT 9:49 PM CDT
Moon 3:30 AM CDT 5:42 PM CDT
Length of Visible Light 14h 54m
Length of Day
13h 59m
Tomorrow will be 1m 20s shorter.
Waning Crescent, 10% of the Moon is Illuminated
Today
Waning Crescent
Jul 26
New
Aug 3
First Quarter
Aug 10
Full
Aug 17
Last Quarter

Today's Extremes

State Highs State Lows

Community

WunderPhotos

Upload Photos

1,736,619 photos uploaded!

Nearby

Snow Depth

Station Depth Elevation
No new snow has been reported.

Earthquake Activity

City Distance Mag. Time & Date
No recent earthquake activity has been reported nearby.
Minimum magnitude displayed is 2.5.

Coastal Water Temperatures

Place Temperature
No Stations Reporting

Nearby Weather Stations

Station Location Temp. Heat Index Dew Point Humidity Wind Precip. Elev Updated Type
MesoWest SUNSHN , Portland, AR 77 °F 75 °F - - North  at  - 0.00 in / hr 125 ft 8:15 AM CDT MADIS
MesoWest DERMOT , Dermott, AR 76 °F 74 °F - - North  at  - 0.00 in / hr 143 ft 7:50 AM CDT MADIS
MesoWest ARLA , Wilmot, AR 82 °F 80 °F - - North  at  - 0.00 in / hr 108 ft 8:40 AM CDT MADIS
Hwy 172, Monticello, AR 85.0 °F 86 °F 64 °F 50% South  at  0.0 mph 0.00 in / hr 246 ft 10:00 AM CDT Normal

Show More Stations Show Fewer Stations